createdAt,value
2022-08-20T00:00:31.948Z,11.70
2022-08-20T00:03:25.621Z,11.20
2022-08-20T00:06:18.649Z,11.60
2022-08-20T00:09:06.609Z,11.33
2022-08-20T00:11:54.619Z,11.53
2022-08-20T00:14:41.511Z,11.77
2022-08-20T00:17:28.517Z,12.13
2022-08-20T00:20:15.429Z,11.97
2022-08-20T00:23:03.719Z,11.93
2022-08-20T00:25:55.168Z,11.90
2022-08-20T00:28:42.248Z,11.97
2022-08-20T00:31:32.470Z,11.97
2022-08-20T00:34:19.454Z,12.37
2022-08-20T00:37:06.482Z,14.40
2022-08-20T00:39:53.459Z,14.87
2022-08-20T00:42:40.496Z,14.63
2022-08-20T00:45:29.502Z,14.70
2022-08-20T00:48:16.895Z,14.67
2022-08-20T00:51:03.930Z,14.67
2022-08-20T00:53:50.899Z,14.83
2022-08-20T00:56:38.620Z,14.33
2022-08-20T00:59:29.131Z,15.33
2022-08-20T01:02:16.793Z,14.13
2022-08-20T01:05:04.927Z,14.03
2022-08-20T01:07:58.015Z,14.73
2022-08-20T01:10:49.526Z,14.47
2022-08-20T01:13:41.281Z,13.40
2022-08-20T01:16:47.341Z,14.30
2022-08-20T01:19:37.325Z,13.87
2022-08-20T01:22:26.489Z,13.60
2022-08-20T01:25:22.617Z,13.60
2022-08-20T01:28:12.141Z,13.70
2022-08-20T01:30:59.561Z,12.43
2022-08-20T01:33:46.598Z,12.60
2022-08-20T01:36:36.453Z,12.17
2022-08-20T01:39:26.590Z,11.50
2022-08-20T01:42:35.321Z,10.60
2022-08-20T01:45:22.332Z,12.13
2022-08-20T01:47:54.970Z,11.83
2022-08-20T01:50:47.680Z,11.90
2022-08-20T01:53:44.755Z,13.50
2022-08-20T01:56:35.036Z,13.50
2022-08-20T01:59:25.601Z,13.10
2022-08-20T02:02:13.771Z,12.87
2022-08-20T02:05:01.553Z,14.03
2022-08-20T02:07:48.625Z,13.80
2022-08-20T02:10:38.492Z,14.00
2022-08-20T02:13:25.407Z,14.83
2022-08-20T02:16:32.480Z,14.10
2022-08-20T02:19:25.129Z,14.40
2022-08-20T02:22:16.950Z,14.63
2022-08-20T02:25:04.250Z,15.57
2022-08-20T02:27:51.896Z,15.07
2022-08-20T02:30:42.672Z,15.37
2022-08-20T02:33:32.514Z,15.20
2022-08-20T02:36:19.432Z,15.57
2022-08-20T02:39:06.773Z,15.47
2022-08-20T02:41:59.109Z,17.10
2022-08-20T02:44:46.314Z,17.50
2022-08-20T02:47:33.186Z,16.67
2022-08-20T02:50:20.450Z,17.10
2022-08-20T02:53:07.693Z,17.43
2022-08-20T02:55:54.789Z,16.63
2022-08-20T02:58:42.116Z,14.60
2022-08-20T03:01:31.666Z,15.00
2022-08-20T03:04:21.561Z,15.67
2022-08-20T03:07:13.296Z,15.47
2022-08-20T03:10:01.525Z,15.63
2022-08-20T03:12:48.519Z,15.20
2022-08-20T03:15:35.697Z,16.33
2022-08-20T03:18:24.581Z,15.80
2022-08-20T03:21:11.849Z,16.10
2022-08-20T03:24:02.233Z,15.27
2022-08-20T03:26:49.214Z,15.97
2022-08-20T03:29:37.320Z,16.10
2022-08-20T03:32:24.562Z,16.93
2022-08-20T03:35:13.548Z,16.03
2022-08-20T03:38:01.429Z,15.87
2022-08-20T03:40:52.317Z,16.27
2022-08-20T03:43:39.320Z,16.43
2022-08-20T03:46:26.427Z,16.50
2022-08-20T03:49:14.476Z,16.40
2022-08-20T03:52:01.496Z,15.80
2022-08-20T03:54:48.413Z,16.40
2022-08-20T03:57:36.639Z,16.70
2022-08-20T04:00:24.937Z,16.10
2022-08-20T04:03:12.012Z,16.23
2022-08-20T04:06:00.464Z,17.57
2022-08-20T04:08:52.238Z,16.23
2022-08-20T04:11:39.396Z,17.13
2022-08-20T04:14:26.384Z,16.23
2022-08-20T04:17:16.240Z,16.33
2022-08-20T04:20:04.100Z,17.93
2022-08-20T04:22:58.655Z,17.13
2022-08-20T04:25:48.552Z,15.20
2022-08-20T04:28:43.720Z,16.30
2022-08-20T04:31:30.809Z,15.73
2022-08-20T04:34:17.726Z,16.50
2022-08-20T04:37:17.334Z,15.90
2022-08-20T04:40:04.580Z,17.47
2022-08-20T04:42:53.203Z,16.00
2022-08-20T04:45:41.036Z,15.87
2022-08-20T04:48:28.031Z,13.77
2022-08-20T04:51:16.291Z,13.00
2022-08-20T04:54:03.353Z,12.90
2022-08-20T04:56:53.362Z,12.83
2022-08-20T04:59:40.496Z,12.90
2022-08-20T05:02:27.446Z,13.53
2022-08-20T05:05:14.901Z,14.80
2022-08-20T05:08:20.061Z,14.73
2022-08-20T05:11:33.548Z,15.10
2022-08-20T05:14:14.566Z,14.60
2022-08-20T05:17:01.773Z,14.10
2022-08-20T05:19:48.661Z,15.70
2022-08-20T05:22:35.808Z,15.50
2022-08-20T05:25:23.788Z,15.00
2022-08-20T05:28:17.372Z,14.93
2022-08-20T05:31:06.248Z,15.50
2022-08-20T05:33:53.417Z,15.77
2022-08-20T05:36:40.317Z,15.47
2022-08-20T05:39:27.893Z,15.47
2022-08-20T05:42:14.875Z,17.67
2022-08-20T05:45:01.945Z,17.33
2022-08-20T05:47:55.440Z,18.93
2022-08-20T05:50:44.546Z,16.47
2022-08-20T05:53:32.373Z,17.70
2022-08-20T05:56:19.394Z,17.37
2022-08-20T05:59:13.546Z,18.50
2022-08-20T06:02:01.536Z,17.87
2022-08-20T06:04:48.600Z,17.97
2022-08-20T06:07:43.638Z,17.37
2022-08-20T06:10:30.597Z,18.47
2022-08-20T06:13:17.696Z,17.77
2022-08-20T06:16:06.885Z,18.10
2022-08-20T06:18:54.088Z,19.00
2022-08-20T06:21:45.317Z,19.00
2022-08-20T06:24:32.335Z,18.50
2022-08-20T06:27:21.201Z,17.67
2022-08-20T06:30:08.982Z,17.53
2022-08-20T06:32:56.064Z,18.50
2022-08-20T06:35:43.368Z,17.57
2022-08-20T06:38:32.185Z,17.00
2022-08-20T06:41:19.291Z,16.63
2022-08-20T06:44:06.307Z,15.93
2022-08-20T06:46:54.764Z,15.60
2022-08-20T06:49:41.729Z,15.57
2022-08-20T06:52:09.492Z,15.57
2022-08-20T06:54:58.694Z,15.40
2022-08-20T06:57:45.617Z,15.60
2022-08-20T07:00:36.651Z,15.13
2022-08-20T07:03:24.930Z,14.80
2022-08-20T07:06:11.859Z,14.47
2022-08-20T07:09:00.092Z,14.77
2022-08-20T07:11:47.157Z,15.00
2022-08-20T07:14:35.702Z,15.00
2022-08-20T07:17:24.302Z,14.40
2022-08-20T07:20:11.509Z,14.17
2022-08-20T07:22:58.674Z,13.37
2022-08-20T07:25:46.176Z,13.70
2022-08-20T07:28:44.957Z,13.73
2022-08-20T07:31:31.494Z,14.53
2022-08-20T07:34:19.597Z,13.80
2022-08-20T07:37:06.910Z,12.93
2022-08-20T07:39:53.901Z,12.90
2022-08-20T07:42:41.020Z,12.90
2022-08-20T07:45:31.609Z,12.63
2022-08-20T07:48:31.729Z,12.60
2022-08-20T07:51:21.945Z,13.03
2022-08-20T07:54:10.202Z,13.70
2022-08-20T07:56:57.388Z,12.83
2022-08-20T07:59:44.367Z,12.27
2022-08-20T08:02:32.214Z,12.57
2022-08-20T08:05:19.434Z,11.17
2022-08-20T08:08:07.430Z,12.17
2022-08-20T08:10:54.632Z,11.87
2022-08-20T08:13:51.104Z,11.73
2022-08-20T08:16:38.183Z,11.47
2022-08-20T08:19:28.876Z,11.83
2022-08-20T08:22:16.688Z,12.10
2022-08-20T08:25:04.975Z,12.00
2022-08-20T08:27:54.718Z,12.40
2022-08-20T08:30:41.574Z,12.50
2022-08-20T08:33:47.548Z,11.70
2022-08-20T08:36:36.127Z,11.17
2022-08-20T08:39:23.240Z,11.37
2022-08-20T08:42:14.251Z,12.07
2022-08-20T08:45:02.101Z,11.63
2022-08-20T08:47:52.945Z,11.70
2022-08-20T08:50:59.878Z,11.23
2022-08-20T08:53:52.128Z,11.70
2022-08-20T08:56:40.473Z,11.30
2022-08-20T08:59:28.781Z,10.87
2022-08-20T09:02:41.644Z,11.17
2022-08-20T09:05:40.702Z,10.83
2022-08-20T09:08:30.814Z,12.03
2022-08-20T09:11:25.963Z,10.90
2022-08-20T09:14:16.304Z,11.30
2022-08-20T09:17:03.285Z,11.20
2022-08-20T09:19:50.606Z,11.20
2022-08-20T09:22:40.636Z,10.80
2022-08-20T09:25:28.144Z,11.43
2022-08-20T09:28:15.033Z,11.60
2022-08-20T09:31:02.914Z,10.80
2022-08-20T09:33:51.500Z,10.40
2022-08-20T09:36:38.768Z,10.60
2022-08-20T09:39:25.725Z,10.67
2022-08-20T09:42:12.747Z,10.90
2022-08-20T09:45:00.177Z,10.37
2022-08-20T09:47:55.015Z,10.37
2022-08-20T09:50:45.637Z,10.53
2022-08-20T09:53:33.537Z,10.03
2022-08-20T09:56:20.469Z,10.40
2022-08-20T09:59:11.156Z,10.33
2022-08-20T10:01:58.035Z,10.90
2022-08-20T10:04:45.347Z,10.60
2022-08-20T10:07:33.323Z,10.30
2022-08-20T10:10:20.950Z,10.33
2022-08-20T10:12:51.594Z,11.17
2022-08-20T10:15:21.536Z,10.60
2022-08-20T10:17:48.580Z,10.87
2022-08-20T10:20:16.186Z,10.57
2022-08-20T10:22:43.412Z,10.93
2022-08-20T10:25:10.887Z,10.50
2022-08-20T10:27:40.464Z,11.17
2022-08-20T10:30:28.592Z,11.03
2022-08-20T10:33:15.661Z,10.77
2022-08-20T10:36:02.685Z,10.30
2022-08-20T10:38:49.505Z,10.47
2022-08-20T10:41:39.050Z,10.47
2022-08-20T10:44:27.191Z,10.43
2022-08-20T10:47:14.271Z,10.53
2022-08-20T10:50:01.240Z,10.23
2022-08-20T10:52:49.502Z,10.03
2022-08-20T10:55:36.618Z,10.23
2022-08-20T10:58:26.981Z,9.60
2022-08-20T11:01:32.796Z,10.17
2022-08-20T11:04:21.012Z,10.43
2022-08-20T11:07:07.936Z,9.97
2022-08-20T11:09:55.297Z,8.90
2022-08-20T11:12:44.805Z,9.97
2022-08-20T11:15:34.654Z,9.70
2022-08-20T11:18:21.693Z,9.10
2022-08-20T11:21:08.959Z,8.33
2022-08-20T11:23:57.429Z,8.70
2022-08-20T11:26:46.910Z,9.10
2022-08-20T11:29:34.597Z,8.50
2022-08-20T11:32:21.780Z,8.20
2022-08-20T11:35:38.407Z,8.53
2022-08-20T11:38:17.182Z,7.80
2022-08-20T11:41:04.665Z,7.87
2022-08-20T11:44:17.486Z,8.37
2022-08-20T11:46:58.870Z,8.20
2022-08-20T11:49:46.010Z,7.70
2022-08-20T11:52:33.145Z,7.50
2022-08-20T11:55:21.073Z,7.83
2022-08-20T11:58:16.924Z,7.87
2022-08-20T12:01:04.121Z,7.13
2022-08-20T12:03:51.087Z,7.17
2022-08-20T12:06:38.123Z,7.47
2022-08-20T12:09:25.073Z,7.50
2022-08-20T12:12:12.264Z,7.10
2022-08-20T12:15:01.230Z,6.97
2022-08-20T12:17:51.072Z,7.23
2022-08-20T12:20:38.025Z,7.43
2022-08-20T12:23:25.392Z,7.10
2022-08-20T12:26:12.301Z,6.97
2022-08-20T12:28:59.412Z,6.87
2022-08-20T12:31:46.266Z,7.17
2022-08-20T12:34:33.244Z,7.10
2022-08-20T12:37:25.888Z,7.30
2022-08-20T12:40:15.627Z,7.17
2022-08-20T12:43:02.646Z,6.83
2022-08-20T12:45:51.153Z,6.80
2022-08-20T12:48:38.188Z,6.80
2022-08-20T12:51:25.261Z,6.33
2022-08-20T12:54:12.113Z,6.60
2022-08-20T12:56:59.300Z,6.80
2022-08-20T12:59:47.429Z,6.90
2022-08-20T13:02:34.496Z,6.97
2022-08-20T13:05:21.603Z,6.43
2022-08-20T13:08:09.500Z,6.53
2022-08-20T13:11:03.806Z,7.03
2022-08-20T13:13:52.124Z,5.87
2022-08-20T13:16:39.356Z,5.27
2022-08-20T13:19:26.401Z,6.27
2022-08-20T13:22:14.475Z,5.60
2022-08-20T13:25:02.376Z,5.70
2022-08-20T13:27:49.514Z,6.57
2022-08-20T13:30:39.713Z,6.33
2022-08-20T13:33:26.761Z,6.13
2022-08-20T13:36:13.992Z,5.93
2022-08-20T13:39:00.853Z,6.50
2022-08-20T13:41:27.993Z,6.20
2022-08-20T13:44:14.973Z,6.10
2022-08-20T13:47:02.350Z,6.30
2022-08-20T13:49:49.340Z,6.33
2022-08-20T13:52:36.337Z,6.00
2022-08-20T13:55:25.702Z,6.23
2022-08-20T13:58:13.450Z,5.73
2022-08-20T14:01:00.607Z,5.57
2022-08-20T14:03:47.689Z,5.47
2022-08-20T14:06:34.541Z,5.40
2022-08-20T14:09:21.738Z,5.30
2022-08-20T14:12:08.807Z,4.93
2022-08-20T14:14:56.016Z,5.57
2022-08-20T14:17:44.905Z,5.50
2022-08-20T14:20:38.656Z,5.37
2022-08-20T14:23:26.053Z,6.03
2022-08-20T14:26:13.193Z,5.80
2022-08-20T14:29:00.176Z,5.97
2022-08-20T14:31:47.306Z,5.30
2022-08-20T14:34:34.245Z,5.27
2022-08-20T14:37:33.246Z,6.17
2022-08-20T14:40:22.570Z,5.73
2022-08-20T14:43:10.201Z,6.07
2022-08-20T14:45:57.247Z,5.67
2022-08-20T14:48:44.307Z,5.67
2022-08-20T14:51:31.221Z,5.80
2022-08-20T14:54:18.209Z,5.23
2022-08-20T14:57:05.116Z,5.50
2022-08-20T15:00:00.606Z,5.20
2022-08-20T15:02:47.741Z,5.23
2022-08-20T15:05:39.258Z,5.40
2022-08-20T15:08:28.784Z,5.60
2022-08-20T15:11:16.080Z,4.70
2022-08-20T15:14:03.084Z,5.17
2022-08-20T15:16:50.314Z,4.90
2022-08-20T15:19:37.185Z,5.03
2022-08-20T15:22:24.412Z,4.67
2022-08-20T15:25:11.445Z,5.10
2022-08-20T15:28:00.724Z,5.10
2022-08-20T15:30:50.268Z,4.97
2022-08-20T15:33:37.344Z,5.00
2022-08-20T15:36:26.829Z,5.53
2022-08-20T15:39:13.937Z,5.00
2022-08-20T15:42:00.804Z,4.80
2022-08-20T15:44:47.899Z,4.60
2022-08-20T15:47:41.325Z,4.87
2022-08-20T15:50:38.364Z,4.40
2022-08-20T15:53:31.979Z,5.10
2022-08-20T15:56:43.937Z,4.97
2022-08-20T15:59:45.691Z,5.20
2022-08-20T16:03:10.295Z,5.27
2022-08-20T16:06:04.510Z,5.70
2022-08-20T16:09:11.446Z,5.60
2022-08-20T16:12:11.583Z,5.77
2022-08-20T16:15:01.872Z,5.40
2022-08-20T16:18:00.860Z,6.63
2022-08-20T16:21:03.921Z,6.03
2022-08-20T16:23:58.195Z,5.10
2022-08-20T16:27:17.746Z,4.90
2022-08-20T16:30:20.794Z,5.00
2022-08-20T16:33:20.050Z,4.87
2022-08-20T16:36:14.284Z,4.90
2022-08-20T16:39:33.428Z,5.73
2022-08-20T16:42:23.742Z,6.00
2022-08-20T16:45:14.733Z,5.87
